sensor_id;sensor_type;location;lat;lon;timestamp;temperature;humidity
62464;SHT31;48512;48.552;9.380;2022-10-15T00:00:35;15.36;89.92
62464;SHT31;48512;48.552;9.380;2022-10-15T00:03:00;15.32;90.03
62464;SHT31;48512;48.552;9.380;2022-10-15T00:05:25;15.29;90.68
62464;SHT31;48512;48.552;9.380;2022-10-15T00:07:51;15.27;90.91
62464;SHT31;48512;48.552;9.380;2022-10-15T00:10:16;15.39;90.39
62464;SHT31;48512;48.552;9.380;2022-10-15T00:12:41;15.39;89.66
62464;SHT31;48512;48.552;9.380;2022-10-15T00:15:07;15.32;90.19
62464;SHT31;48512;48.552;9.380;2022-10-15T00:17:33;15.33;90.56
62464;SHT31;48512;48.552;9.380;2022-10-15T00:19:58;15.44;89.93
62464;SHT31;48512;48.552;9.380;2022-10-15T00:22:23;15.33;90.59
62464;SHT31;48512;48.552;9.380;2022-10-15T00:24:49;15.32;91.04
62464;SHT31;48512;48.552;9.380;2022-10-15T00:27:14;15.32;90.70
62464;SHT31;48512;48.552;9.380;2022-10-15T00:29:39;15.32;90.92
62464;SHT31;48512;48.552;9.380;2022-10-15T00:32:04;15.30;91.34
62464;SHT31;48512;48.552;9.380;2022-10-15T00:34:30;15.33;90.81
62464;SHT31;48512;48.552;9.380;2022-10-15T00:36:55;15.46;90.33
62464;SHT31;48512;48.552;9.380;2022-10-15T00:39:20;15.37;91.01
62464;SHT31;48512;48.552;9.380;2022-10-15T00:41:46;15.29;91.45
62464;SHT31;48512;48.552;9.380;2022-10-15T00:46:45;15.26;91.69
62464;SHT31;48512;48.552;9.380;2022-10-15T00:49:19;15.35;91.47
62464;SHT31;48512;48.552;9.380;2022-10-15T00:51:46;15.42;90.84
62464;SHT31;48512;48.552;9.380;2022-10-15T00:54:13;15.35;91.13
62464;SHT31;48512;48.552;9.380;2022-10-15T00:56:39;15.36;91.30
62464;SHT31;48512;48.552;9.380;2022-10-15T00:59:05;15.46;90.66
62464;SHT31;48512;48.552;9.380;2022-10-15T01:01:31;15.46;90.73
62464;SHT31;48512;48.552;9.380;2022-10-15T01:03:56;15.57;90.07
62464;SHT31;48512;48.552;9.380;2022-10-15T01:06:22;15.63;90.24
62464;SHT31;48512;48.552;9.380;2022-10-15T01:08:47;15.64;90.17
62464;SHT31;48512;48.552;9.380;2022-10-15T01:16:20;15.60;91.49
62464;SHT31;48512;48.552;9.380;2022-10-15T01:18:51;15.42;92.47
62464;SHT31;48512;48.552;9.380;2022-10-15T01:21:24;15.39;92.27
62464;SHT31;48512;48.552;9.380;2022-10-15T01:34:43;15.43;92.29
62464;SHT31;48512;48.552;9.380;2022-10-15T01:37:11;15.49;91.65
62464;SHT31;48512;48.552;9.380;2022-10-15T01:39:41;15.58;90.49
62464;SHT31;48512;48.552;9.380;2022-10-15T01:42:12;15.63;91.27
62464;SHT31;48512;48.552;9.380;2022-10-15T01:44:40;15.74;90.08
62464;SHT31;48512;48.552;9.380;2022-10-15T01:47:07;15.53;90.93
62464;SHT31;48512;48.552;9.380;2022-10-15T01:49:37;15.55;91.30
62464;SHT31;48512;48.552;9.380;2022-10-15T01:52:05;15.47;91.81
62464;SHT31;48512;48.552;9.380;2022-10-15T01:54:32;15.51;91.90
62464;SHT31;48512;48.552;9.380;2022-10-15T01:56:58;15.74;90.07
62464;SHT31;48512;48.552;9.380;2022-10-15T01:59:27;15.55;91.11
62464;SHT31;48512;48.552;9.380;2022-10-15T02:01:54;15.65;91.05
62464;SHT31;48512;48.552;9.380;2022-10-15T02:04:23;15.73;90.50
62464;SHT31;48512;48.552;9.380;2022-10-15T02:06:52;15.74;91.38
62464;SHT31;48512;48.552;9.380;2022-10-15T02:09:28;15.91;90.00
62464;SHT31;48512;48.552;9.380;2022-10-15T02:14:25;15.67;92.43
62464;SHT31;48512;48.552;9.380;2022-10-15T02:16:55;15.50;92.91
62464;SHT31;48512;48.552;9.380;2022-10-15T02:24:32;15.67;92.44
62464;SHT31;48512;48.552;9.380;2022-10-15T02:26:59;15.73;91.64
62464;SHT31;48512;48.552;9.380;2022-10-15T02:29:26;15.88;91.25
62464;SHT31;48512;48.552;9.380;2022-10-15T02:31:53;15.71;92.38
62464;SHT31;48512;48.552;9.380;2022-10-15T02:34:20;15.67;92.49
62464;SHT31;48512;48.552;9.380;2022-10-15T02:36:46;15.61;92.81
62464;SHT31;48512;48.552;9.380;2022-10-15T02:39:13;15.63;93.29
62464;SHT31;48512;48.552;9.380;2022-10-15T02:41:40;15.71;92.43
62464;SHT31;48512;48.552;9.380;2022-10-15T02:44:05;15.85;92.04
62464;SHT31;48512;48.552;9.380;2022-10-15T02:46:31;15.82;91.69
62464;SHT31;48512;48.552;9.380;2022-10-15T02:48:56;15.71;92.88
62464;SHT31;48512;48.552;9.380;2022-10-15T02:51:21;15.73;92.99
62464;SHT31;48512;48.552;9.380;2022-10-15T02:53:46;15.88;92.12
62464;SHT31;48512;48.552;9.380;2022-10-15T02:56:12;16.01;90.88
62464;SHT31;48512;48.552;9.380;2022-10-15T02:58:37;16.01;90.62
62464;SHT31;48512;48.552;9.380;2022-10-15T03:01:03;16.02;91.97
62464;SHT31;48512;48.552;9.380;2022-10-15T03:03:28;15.95;91.93
62464;SHT31;48512;48.552;9.380;2022-10-15T03:05:53;16.08;90.87
62464;SHT31;48512;48.552;9.380;2022-10-15T03:08:19;16.12;90.45
62464;SHT31;48512;48.552;9.380;2022-10-15T03:10:44;16.09;90.66
62464;SHT31;48512;48.552;9.380;2022-10-15T03:13:10;16.15;90.82
62464;SHT31;48512;48.552;9.380;2022-10-15T03:15:36;16.05;90.95
62464;SHT31;48512;48.552;9.380;2022-10-15T03:18:01;16.15;90.44
62464;SHT31;48512;48.552;9.380;2022-10-15T03:20:26;16.06;90.95
62464;SHT31;48512;48.552;9.380;2022-10-15T03:22:52;15.95;91.88
62464;SHT31;48512;48.552;9.380;2022-10-15T03:25:17;15.95;91.36
62464;SHT31;48512;48.552;9.380;2022-10-15T03:27:42;16.01;90.85
62464;SHT31;48512;48.552;9.380;2022-10-15T03:30:07;16.06;90.44
62464;SHT31;48512;48.552;9.380;2022-10-15T03:32:33;16.16;89.67
62464;SHT31;48512;48.552;9.380;2022-10-15T03:34:58;16.15;89.93
62464;SHT31;48512;48.552;9.380;2022-10-15T03:37:23;16.16;89.84
62464;SHT31;48512;48.552;9.380;2022-10-15T03:39:49;16.29;88.51
62464;SHT31;48512;48.552;9.380;2022-10-15T03:42:14;16.18;89.26
62464;SHT31;48512;48.552;9.380;2022-10-15T03:44:39;16.06;89.16
62464;SHT31;48512;48.552;9.380;2022-10-15T03:47:05;16.04;89.49
62464;SHT31;48512;48.552;9.380;2022-10-15T03:49:30;16.16;88.26
62464;SHT31;48512;48.552;9.380;2022-10-15T03:51:55;16.23;88.45
62464;SHT31;48512;48.552;9.380;2022-10-15T03:54:21;16.09;88.66
62464;SHT31;48512;48.552;9.380;2022-10-15T03:56:46;16.06;88.92
62464;SHT31;48512;48.552;9.380;2022-10-15T03:59:11;16.28;87.04
62464;SHT31;48512;48.552;9.380;2022-10-15T04:01:36;16.42;86.91
62464;SHT31;48512;48.552;9.380;2022-10-15T04:04:02;16.12;88.37
62464;SHT31;48512;48.552;9.380;2022-10-15T04:06:27;16.30;87.63
62464;SHT31;48512;48.552;9.380;2022-10-15T04:08:52;16.22;87.59
62464;SHT31;48512;48.552;9.380;2022-10-15T04:11:17;16.18;87.78
62464;SHT31;48512;48.552;9.380;2022-10-15T04:13:46;16.11;87.90
62464;SHT31;48512;48.552;9.380;2022-10-15T04:16:11;16.05;88.18
62464;SHT31;48512;48.552;9.380;2022-10-15T04:18:37;16.16;87.78
62464;SHT31;48512;48.552;9.380;2022-10-15T04:21:02;16.06;88.07
62464;SHT31;48512;48.552;9.380;2022-10-15T04:23:27;16.16;87.28
62464;SHT31;48512;48.552;9.380;2022-10-15T04:25:53;16.12;87.42
62464;SHT31;48512;48.552;9.380;2022-10-15T04:28:18;16.06;87.65
62464;SHT31;48512;48.552;9.380;2022-10-15T04:30:43;16.06;87.95
62464;SHT31;48512;48.552;9.380;2022-10-15T04:33:09;16.28;86.54
62464;SHT31;48512;48.552;9.380;2022-10-15T04:35:34;16.15;86.88
62464;SHT31;48512;48.552;9.380;2022-10-15T04:37:59;15.92;88.76
62464;SHT31;48512;48.552;9.380;2022-10-15T04:40:25;16.05;88.36
62464;SHT31;48512;48.552;9.380;2022-10-15T04:42:50;15.98;88.04
62464;SHT31;48512;48.552;9.380;2022-10-15T04:45:15;16.12;87.66
62464;SHT31;48512;48.552;9.380;2022-10-15T04:47:40;16.04;87.49
62464;SHT31;48512;48.552;9.380;2022-10-15T04:50:06;15.87;88.27
62464;SHT31;48512;48.552;9.380;2022-10-15T04:52:32;16.00;87.37
62464;SHT31;48512;48.552;9.380;2022-10-15T04:54:57;15.95;87.75
62464;SHT31;48512;48.552;9.380;2022-10-15T04:57:23;15.95;87.80
62464;SHT31;48512;48.552;9.380;2022-10-15T04:59:48;15.90;87.66
62464;SHT31;48512;48.552;9.380;2022-10-15T05:02:13;16.01;87.57
62464;SHT31;48512;48.552;9.380;2022-10-15T05:04:38;15.97;87.31
62464;SHT31;48512;48.552;9.380;2022-10-15T05:07:04;15.95;87.27
62464;SHT31;48512;48.552;9.380;2022-10-15T05:09:29;15.90;87.73
62464;SHT31;48512;48.552;9.380;2022-10-15T05:11:54;16.13;86.25
62464;SHT31;48512;48.552;9.380;2022-10-15T05:14:20;16.01;86.72
62464;SHT31;48512;48.552;9.380;2022-10-15T05:16:45;15.91;87.35
62464;SHT31;48512;48.552;9.380;2022-10-15T05:19:11;16.16;84.99
62464;SHT31;48512;48.552;9.380;2022-10-15T05:21:36;15.94;85.95
62464;SHT31;48512;48.552;9.380;2022-10-15T05:24:01;16.00;86.23
62464;SHT31;48512;48.552;9.380;2022-10-15T05:26:28;15.87;86.50
62464;SHT31;48512;48.552;9.380;2022-10-15T05:28:54;16.05;85.60
62464;SHT31;48512;48.552;9.380;2022-10-15T05:31:21;16.12;84.72
62464;SHT31;48512;48.552;9.380;2022-10-15T05:33:47;16.12;84.69
62464;SHT31;48512;48.552;9.380;2022-10-15T05:38:38;16.04;84.56
62464;SHT31;48512;48.552;9.380;2022-10-15T05:41:04;16.16;84.48
62464;SHT31;48512;48.552;9.380;2022-10-15T05:43:29;16.19;83.96
62464;SHT31;48512;48.552;9.380;2022-10-15T05:45:55;16.11;84.74
62464;SHT31;48512;48.552;9.380;2022-10-15T05:48:20;16.05;84.23
62464;SHT31;48512;48.552;9.380;2022-10-15T05:50:45;15.92;85.40
62464;SHT31;48512;48.552;9.380;2022-10-15T05:53:11;15.82;86.40
62464;SHT31;48512;48.552;9.380;2022-10-15T05:55:36;15.85;85.81
62464;SHT31;48512;48.552;9.380;2022-10-15T05:58:02;16.01;84.77
62464;SHT31;48512;48.552;9.380;2022-10-15T06:00:27;16.09;83.49
62464;SHT31;48512;48.552;9.380;2022-10-15T06:02:53;15.90;84.71
62464;SHT31;48512;48.552;9.380;2022-10-15T06:05:18;16.11;83.61
62464;SHT31;48512;48.552;9.380;2022-10-15T06:07:43;16.06;83.75
62464;SHT31;48512;48.552;9.380;2022-10-15T06:10:09;16.09;83.41
62464;SHT31;48512;48.552;9.380;2022-10-15T06:12:34;16.06;83.32
62464;SHT31;48512;48.552;9.380;2022-10-15T06:14:59;16.21;82.64
62464;SHT31;48512;48.552;9.380;2022-10-15T06:17:24;16.19;82.98
62464;SHT31;48512;48.552;9.380;2022-10-15T06:19:50;16.13;83.07
62464;SHT31;48512;48.552;9.380;2022-10-15T06:22:15;16.18;83.32
62464;SHT31;48512;48.552;9.380;2022-10-15T06:24:40;16.21;83.31
62464;SHT31;48512;48.552;9.380;2022-10-15T06:27:05;15.97;85.53
62464;SHT31;48512;48.552;9.380;2022-10-15T06:29:31;16.09;84.48
62464;SHT31;48512;48.552;9.380;2022-10-15T06:31:56;15.98;84.91
62464;SHT31;48512;48.552;9.380;2022-10-15T06:34:21;15.90;85.63
62464;SHT31;48512;48.552;9.380;2022-10-15T06:36:46;15.91;85.00
62464;SHT31;48512;48.552;9.380;2022-10-15T06:39:12;15.90;85.80
62464;SHT31;48512;48.552;9.380;2022-10-15T06:41:37;16.02;85.27
62464;SHT31;48512;48.552;9.380;2022-10-15T06:44:02;15.90;86.67
62464;SHT31;48512;48.552;9.380;2022-10-15T06:46:28;15.84;87.88
62464;SHT31;48512;48.552;9.380;2022-10-15T06:48:53;15.87;86.85
62464;SHT31;48512;48.552;9.380;2022-10-15T06:51:19;15.91;85.98
62464;SHT31;48512;48.552;9.380;2022-10-15T06:53:45;15.94;86.00
62464;SHT31;48512;48.552;9.380;2022-10-15T06:56:10;16.09;86.24
62464;SHT31;48512;48.552;9.380;2022-10-15T06:58:35;16.12;86.73
62464;SHT31;48512;48.552;9.380;2022-10-15T07:01:01;16.12;87.24
62464;SHT31;48512;48.552;9.380;2022-10-15T07:03:27;16.04;87.12
62464;SHT31;48512;48.552;9.380;2022-10-15T07:05:53;16.04;86.07
62464;SHT31;48512;48.552;9.380;2022-10-15T07:08:18;16.04;87.72
62464;SHT31;48512;48.552;9.380;2022-10-15T07:10:43;16.00;87.82
62464;SHT31;48512;48.552;9.380;2022-10-15T07:13:09;16.09;86.71
62464;SHT31;48512;48.552;9.380;2022-10-15T07:15:34;16.13;86.61
62464;SHT31;48512;48.552;9.380;2022-10-15T07:17:59;16.22;86.65
62464;SHT31;48512;48.552;9.380;2022-10-15T07:20:28;16.21;86.97
62464;SHT31;48512;48.552;9.380;2022-10-15T07:22:55;16.16;87.71
62464;SHT31;48512;48.552;9.380;2022-10-15T07:25:20;16.30;86.39
62464;SHT31;48512;48.552;9.380;2022-10-15T07:27:45;16.23;86.78
62464;SHT31;48512;48.552;9.380;2022-10-15T07:30:11;16.18;87.37
62464;SHT31;48512;48.552;9.380;2022-10-15T07:32:36;16.26;86.60
62464;SHT31;48512;48.552;9.380;2022-10-15T07:35:01;16.26;87.21
62464;SHT31;48512;48.552;9.380;2022-10-15T07:37:27;16.34;86.86
62464;SHT31;48512;48.552;9.380;2022-10-15T07:39:52;16.23;87.75
62464;SHT31;48512;48.552;9.380;2022-10-15T07:42:17;16.53;87.29
62464;SHT31;48512;48.552;9.380;2022-10-15T07:44:42;16.18;89.47
62464;SHT31;48512;48.552;9.380;2022-10-15T07:47:08;16.33;88.88
62464;SHT31;48512;48.552;9.380;2022-10-15T07:49:33;16.22;89.53
62464;SHT31;48512;48.552;9.380;2022-10-15T07:51:58;16.19;89.84
62464;SHT31;48512;48.552;9.380;2022-10-15T07:54:24;16.34;89.68
62464;SHT31;48512;48.552;9.380;2022-10-15T07:56:49;16.19;90.31
62464;SHT31;48512;48.552;9.380;2022-10-15T07:59:14;15.97;91.40
62464;SHT31;48512;48.552;9.380;2022-10-15T08:01:40;15.95;92.07
62464;SHT31;48512;48.552;9.380;2022-10-15T08:04:05;16.01;91.40
62464;SHT31;48512;48.552;9.380;2022-10-15T08:06:31;16.02;91.71
62464;SHT31;48512;48.552;9.380;2022-10-15T08:08:56;16.15;91.99
62464;SHT31;48512;48.552;9.380;2022-10-15T08:11:22;16.22;89.76
62464;SHT31;48512;48.552;9.380;2022-10-15T08:13:47;16.25;90.01
62464;SHT31;48512;48.552;9.380;2022-10-15T08:16:13;16.18;90.20
62464;SHT31;48512;48.552;9.380;2022-10-15T08:18:39;16.16;91.20
62464;SHT31;48512;48.552;9.380;2022-10-15T08:21:05;16.28;90.44
62464;SHT31;48512;48.552;9.380;2022-10-15T08:23:30;16.33;89.07
62464;SHT31;48512;48.552;9.380;2022-10-15T08:25:56;16.39;89.49
62464;SHT31;48512;48.552;9.380;2022-10-15T08:28:22;16.39;87.49
62464;SHT31;48512;48.552;9.380;2022-10-15T08:30:47;16.52;87.89
62464;SHT31;48512;48.552;9.380;2022-10-15T08:33:12;16.67;87.60
62464;SHT31;48512;48.552;9.380;2022-10-15T08:35:42;16.83;85.64
62464;SHT31;48512;48.552;9.380;2022-10-15T08:38:08;16.71;86.45
62464;SHT31;48512;48.552;9.380;2022-10-15T08:40:33;16.67;86.66
62464;SHT31;48512;48.552;9.380;2022-10-15T08:42:58;16.89;85.83
62464;SHT31;48512;48.552;9.380;2022-10-15T08:45:25;16.91;85.14
62464;SHT31;48512;48.552;9.380;2022-10-15T08:53:01;17.26;85.66
62464;SHT31;48512;48.552;9.380;2022-10-15T08:55:28;17.36;83.87
62464;SHT31;48512;48.552;9.380;2022-10-15T08:57:56;17.25;83.46
62464;SHT31;48512;48.552;9.380;2022-10-15T09:00:28;17.50;82.83
62464;SHT31;48512;48.552;9.380;2022-10-15T09:02:59;17.42;82.75
62464;SHT31;48512;48.552;9.380;2022-10-15T09:13:14;17.83;80.01
62464;SHT31;48512;48.552;9.380;2022-10-15T09:15:47;17.90;81.28
62464;SHT31;48512;48.552;9.380;2022-10-15T09:18:16;17.97;80.58
62464;SHT31;48512;48.552;9.380;2022-10-15T09:20:42;18.05;79.33
62464;SHT31;48512;48.552;9.380;2022-10-15T09:23:19;17.94;79.49
62464;SHT31;48512;48.552;9.380;2022-10-15T09:25:46;17.86;80.00
62464;SHT31;48512;48.552;9.380;2022-10-15T09:28:14;17.87;80.31
62464;SHT31;48512;48.552;9.380;2022-10-15T09:35:43;18.10;80.08
62464;SHT31;48512;48.552;9.380;2022-10-15T09:38:46;17.97;79.33
62464;SHT31;48512;48.552;9.380;2022-10-15T09:41:06;18.14;77.10
62464;SHT31;48512;48.552;9.380;2022-10-15T09:43:40;18.05;77.49
62464;SHT31;48512;48.552;9.380;2022-10-15T09:46:07;17.94;77.41
62464;SHT31;48512;48.552;9.380;2022-10-15T09:48:35;17.97;78.50
62464;SHT31;48512;48.552;9.380;2022-10-15T09:51:09;18.14;78.08
62464;SHT31;48512;48.552;9.380;2022-10-15T09:56:07;17.91;77.70
62464;SHT31;48512;48.552;9.380;2022-10-15T09:58:39;18.01;77.03
62464;SHT31;48512;48.552;9.380;2022-10-15T10:01:15;18.04;76.47
62464;SHT31;48512;48.552;9.380;2022-10-15T10:03:42;18.07;76.74
62464;SHT31;48512;48.552;9.380;2022-10-15T10:06:10;18.17;76.07
62464;SHT31;48512;48.552;9.380;2022-10-15T10:08:46;18.51;74.64
62464;SHT31;48512;48.552;9.380;2022-10-15T10:11:13;18.51;74.62
62464;SHT31;48512;48.552;9.380;2022-10-15T10:16:10;18.52;72.67
62464;SHT31;48512;48.552;9.380;2022-10-15T10:18:35;19.08;71.52
62464;SHT31;48512;48.552;9.380;2022-10-15T10:21:24;19.04;72.30
62464;SHT31;48512;48.552;9.380;2022-10-15T10:23:47;19.62;69.93
62464;SHT31;48512;48.552;9.380;2022-10-15T10:26:12;20.31;68.58
62464;SHT31;48512;48.552;9.380;2022-10-15T10:31:07;20.06;68.26
62464;SHT31;48512;48.552;9.380;2022-10-15T10:33:40;19.94;68.58
62464;SHT31;48512;48.552;9.380;2022-10-15T10:36:06;20.63;67.50
62464;SHT31;48512;48.552;9.380;2022-10-15T10:38:36;20.31;67.93
62464;SHT31;48512;48.552;9.380;2022-10-15T10:41:06;20.72;66.78
62464;SHT31;48512;48.552;9.380;2022-10-15T10:43:38;21.00;65.63
62464;SHT31;48512;48.552;9.380;2022-10-15T10:46:05;21.26;65.49
62464;SHT31;48512;48.552;9.380;2022-10-15T10:48:43;21.85;64.54
62464;SHT31;48512;48.552;9.380;2022-10-15T10:53:37;20.27;66.76
62464;SHT31;48512;48.552;9.380;2022-10-15T10:56:04;20.23;67.75
62464;SHT31;48512;48.552;9.380;2022-10-15T10:58:32;20.33;66.70
62464;SHT31;48512;48.552;9.380;2022-10-15T11:00:58;20.27;66.57
62464;SHT31;48512;48.552;9.380;2022-10-15T11:05:55;20.20;66.99
62464;SHT31;48512;48.552;9.380;2022-10-15T11:23:21;19.99;67.09
62464;SHT31;48512;48.552;9.380;2022-10-15T11:31:09;19.76;68.95
62464;SHT31;48512;48.552;9.380;2022-10-15T11:33:45;19.72;68.79
62464;SHT31;48512;48.552;9.380;2022-10-15T11:36:27;19.55;68.42
62464;SHT31;48512;48.552;9.380;2022-10-15T11:38:57;19.58;69.45
62464;SHT31;48512;48.552;9.380;2022-10-15T11:46:23;19.79;69.14
62464;SHT31;48512;48.552;9.380;2022-10-15T11:56:46;20.00;68.39
62464;SHT31;48512;48.552;9.380;2022-10-15T12:02:00;20.03;67.03
62464;SHT31;48512;48.552;9.380;2022-10-15T12:04:32;20.21;65.48
62464;SHT31;48512;48.552;9.380;2022-10-15T12:07:00;20.36;65.28
62464;SHT31;48512;48.552;9.380;2022-10-15T12:09:28;20.75;64.71
62464;SHT31;48512;48.552;9.380;2022-10-15T12:11:55;21.07;63.11
62464;SHT31;48512;48.552;9.380;2022-10-15T12:14:26;21.24;62.95
62464;SHT31;48512;48.552;9.380;2022-10-15T12:19:21;22.39;62.04
62464;SHT31;48512;48.552;9.380;2022-10-15T12:29:42;21.16;63.22
62464;SHT31;48512;48.552;9.380;2022-10-15T12:32:29;21.12;63.86
62464;SHT31;48512;48.552;9.380;2022-10-15T12:34:54;21.24;63.95
62464;SHT31;48512;48.552;9.380;2022-10-15T12:37:19;21.74;63.63
62464;SHT31;48512;48.552;9.380;2022-10-15T12:39:46;22.84;58.32
62464;SHT31;48512;48.552;9.380;2022-10-15T12:42:52;22.08;60.04
62464;SHT31;48512;48.552;9.380;2022-10-15T12:45:20;21.67;60.94
62464;SHT31;48512;48.552;9.380;2022-10-15T12:50:17;21.26;61.29
62464;SHT31;48512;48.552;9.380;2022-10-15T12:55:24;21.18;62.34
62464;SHT31;48512;48.552;9.380;2022-10-15T12:57:50;21.12;62.72
62464;SHT31;48512;48.552;9.380;2022-10-15T13:02:50;20.86;63.87
62464;SHT31;48512;48.552;9.380;2022-10-15T13:07:47;20.91;66.03
62464;SHT31;48512;48.552;9.380;2022-10-15T13:10:17;20.92;64.60
62464;SHT31;48512;48.552;9.380;2022-10-15T13:12:43;20.76;64.25
62464;SHT31;48512;48.552;9.380;2022-10-15T13:15:09;20.89;65.14
62464;SHT31;48512;48.552;9.380;2022-10-15T13:17:37;21.02;63.51
62464;SHT31;48512;48.552;9.380;2022-10-15T13:20:06;20.64;64.34
62464;SHT31;48512;48.552;9.380;2022-10-15T13:22:33;20.58;65.04
62464;SHT31;48512;48.552;9.380;2022-10-15T13:24:59;20.76;65.42
62464;SHT31;48512;48.552;9.380;2022-10-15T13:32:25;20.61;66.45
62464;SHT31;48512;48.552;9.380;2022-10-15T13:34:51;20.36;65.35
62464;SHT31;48512;48.552;9.380;2022-10-15T13:37:18;20.44;66.36
62464;SHT31;48512;48.552;9.380;2022-10-15T13:39:44;20.37;65.11
62464;SHT31;48512;48.552;9.380;2022-10-15T13:44:37;20.58;64.83
62464;SHT31;48512;48.552;9.380;2022-10-15T13:47:03;20.45;65.43
62464;SHT31;48512;48.552;9.380;2022-10-15T13:49:41;20.37;65.99
62464;SHT31;48512;48.552;9.380;2022-10-15T13:52:07;20.47;65.41
62464;SHT31;48512;48.552;9.380;2022-10-15T13:54:32;20.41;66.53
62464;SHT31;48512;48.552;9.380;2022-10-15T13:56:58;20.47;66.34
62464;SHT31;48512;48.552;9.380;2022-10-15T13:59:26;20.48;65.27
62464;SHT31;48512;48.552;9.380;2022-10-15T14:02:01;20.19;66.78
62464;SHT31;48512;48.552;9.380;2022-10-15T14:04:28;20.30;66.75
62464;SHT31;48512;48.552;9.380;2022-10-15T14:06:55;20.13;66.79
62464;SHT31;48512;48.552;9.380;2022-10-15T14:09:24;19.93;67.41
62464;SHT31;48512;48.552;9.380;2022-10-15T14:11:52;19.87;67.18
62464;SHT31;48512;48.552;9.380;2022-10-15T14:16:56;19.62;68.84
62464;SHT31;48512;48.552;9.380;2022-10-15T14:19:22;19.48;68.68
62464;SHT31;48512;48.552;9.380;2022-10-15T14:21:54;19.28;70.12
62464;SHT31;48512;48.552;9.380;2022-10-15T14:24:20;19.20;71.05
62464;SHT31;48512;48.552;9.380;2022-10-15T14:26:46;19.39;70.31
62464;SHT31;48512;48.552;9.380;2022-10-15T14:31:46;19.31;70.31
62464;SHT31;48512;48.552;9.380;2022-10-15T14:36:56;19.27;69.88
62464;SHT31;48512;48.552;9.380;2022-10-15T14:41:59;19.47;70.09
62464;SHT31;48512;48.552;9.380;2022-10-15T14:44:25;19.35;69.11
62464;SHT31;48512;48.552;9.380;2022-10-15T14:46:58;19.23;69.34
62464;SHT31;48512;48.552;9.380;2022-10-15T14:49:32;19.47;69.15
62464;SHT31;48512;48.552;9.380;2022-10-15T14:52:10;19.27;69.39
62464;SHT31;48512;48.552;9.380;2022-10-15T14:54:39;19.28;69.55
62464;SHT31;48512;48.552;9.380;2022-10-15T14:57:17;19.25;69.16
62464;SHT31;48512;48.552;9.380;2022-10-15T14:59:44;19.11;69.89
62464;SHT31;48512;48.552;9.380;2022-10-15T15:02:12;19.24;70.51
62464;SHT31;48512;48.552;9.380;2022-10-15T15:04:40;19.41;71.01
62464;SHT31;48512;48.552;9.380;2022-10-15T15:07:10;19.66;69.76
62464;SHT31;48512;48.552;9.380;2022-10-15T15:09:36;19.42;70.36
62464;SHT31;48512;48.552;9.380;2022-10-15T15:12:04;19.36;70.58
62464;SHT31;48512;48.552;9.380;2022-10-15T15:14:29;19.38;70.74
62464;SHT31;48512;48.552;9.380;2022-10-15T15:16:55;19.54;70.05
62464;SHT31;48512;48.552;9.380;2022-10-15T15:19:20;19.54;70.83
62464;SHT31;48512;48.552;9.380;2022-10-15T15:21:45;19.61;70.34
62464;SHT31;48512;48.552;9.380;2022-10-15T15:24:11;19.65;70.57
62464;SHT31;48512;48.552;9.380;2022-10-15T15:26:36;19.59;70.01
62464;SHT31;48512;48.552;9.380;2022-10-15T15:29:01;19.61;70.20
62464;SHT31;48512;48.552;9.380;2022-10-15T15:31:27;19.48;70.41
62464;SHT31;48512;48.552;9.380;2022-10-15T15:33:56;19.50;69.43
62464;SHT31;48512;48.552;9.380;2022-10-15T15:36:21;19.38;69.72
62464;SHT31;48512;48.552;9.380;2022-10-15T15:38:47;19.30;69.83
62464;SHT31;48512;48.552;9.380;2022-10-15T15:41:13;19.35;70.32
62464;SHT31;48512;48.552;9.380;2022-10-15T15:43:39;19.82;68.04
62464;SHT31;48512;48.552;9.380;2022-10-15T15:46:05;19.50;69.50
62464;SHT31;48512;48.552;9.380;2022-10-15T15:48:30;19.45;69.69
62464;SHT31;48512;48.552;9.380;2022-10-15T15:50:57;19.28;70.69
62464;SHT31;48512;48.552;9.380;2022-10-15T15:53:23;19.39;71.80
62464;SHT31;48512;48.552;9.380;2022-10-15T15:55:48;19.27;70.52
62464;SHT31;48512;48.552;9.380;2022-10-15T15:58:14;19.10;71.41
62464;SHT31;48512;48.552;9.380;2022-10-15T16:00:39;19.02;72.52
62464;SHT31;48512;48.552;9.380;2022-10-15T16:03:04;19.00;72.96
62464;SHT31;48512;48.552;9.380;2022-10-15T16:05:29;19.08;72.37
62464;SHT31;48512;48.552;9.380;2022-10-15T16:07:55;19.50;72.25
62464;SHT31;48512;48.552;9.380;2022-10-15T16:10:20;19.65;71.46
62464;SHT31;48512;48.552;9.380;2022-10-15T16:12:45;19.45;70.87
62464;SHT31;48512;48.552;9.380;2022-10-15T16:15:11;19.41;70.07
62464;SHT31;48512;48.552;9.380;2022-10-15T16:17:36;19.14;71.23
62464;SHT31;48512;48.552;9.380;2022-10-15T16:20:02;18.94;72.17
62464;SHT31;48512;48.552;9.380;2022-10-15T16:22:27;19.08;73.13
62464;SHT31;48512;48.552;9.380;2022-10-15T16:24:52;19.13;71.32
62464;SHT31;48512;48.552;9.380;2022-10-15T16:27:19;18.83;72.05
62464;SHT31;48512;48.552;9.380;2022-10-15T16:29:44;18.79;72.39
62464;SHT31;48512;48.552;9.380;2022-10-15T16:32:10;18.65;72.35
62464;SHT31;48512;48.552;9.380;2022-10-15T16:34:35;18.60;72.64
62464;SHT31;48512;48.552;9.380;2022-10-15T16:37:00;18.66;71.97
62464;SHT31;48512;48.552;9.380;2022-10-15T16:39:26;18.56;72.36
62464;SHT31;48512;48.552;9.380;2022-10-15T16:41:51;18.63;72.43
62464;SHT31;48512;48.552;9.380;2022-10-15T16:44:16;18.53;72.66
62464;SHT31;48512;48.552;9.380;2022-10-15T16:46:41;18.44;72.73
62464;SHT31;48512;48.552;9.380;2022-10-15T16:49:07;18.34;73.28
62464;SHT31;48512;48.552;9.380;2022-10-15T16:51:33;18.32;73.51
62464;SHT31;48512;48.552;9.380;2022-10-15T16:53:58;18.41;73.13
62464;SHT31;48512;48.552;9.380;2022-10-15T16:56:24;18.28;73.33
62464;SHT31;48512;48.552;9.380;2022-10-15T16:58:50;18.34;73.48
62464;SHT31;48512;48.552;9.380;2022-10-15T17:01:16;18.34;73.09
62464;SHT31;48512;48.552;9.380;2022-10-15T17:03:42;18.18;73.22
62464;SHT31;48512;48.552;9.380;2022-10-15T17:06:09;18.14;73.57
62464;SHT31;48512;48.552;9.380;2022-10-15T17:08:42;18.15;73.17
62464;SHT31;48512;48.552;9.380;2022-10-15T17:11:12;18.11;73.39
62464;SHT31;48512;48.552;9.380;2022-10-15T17:13:37;18.10;73.60
62464;SHT31;48512;48.552;9.380;2022-10-15T17:16:10;18.10;73.95
62464;SHT31;48512;48.552;9.380;2022-10-15T17:18:36;18.17;73.11
62464;SHT31;48512;48.552;9.380;2022-10-15T17:21:01;18.21;72.90
62464;SHT31;48512;48.552;9.380;2022-10-15T17:23:26;18.18;73.46
62464;SHT31;48512;48.552;9.380;2022-10-15T17:25:53;18.15;73.65
62464;SHT31;48512;48.552;9.380;2022-10-15T17:28:19;18.17;74.76
62464;SHT31;48512;48.552;9.380;2022-10-15T17:30:44;18.10;73.65
62464;SHT31;48512;48.552;9.380;2022-10-15T17:33:09;17.98;74.55
62464;SHT31;48512;48.552;9.380;2022-10-15T17:35:35;18.11;73.63
62464;SHT31;48512;48.552;9.380;2022-10-15T17:38:01;18.05;74.77
62464;SHT31;48512;48.552;9.380;2022-10-15T17:40:26;17.98;74.91